Time;durP1;ratioP1;P1;durP2;ratioP2;P2;SDS_P1;SDS_P2;PMS_P1;PMS_P2;Temp;Humidity;BMP_temperature;BMP_pressure;BME280_temperature;BME280_humidity;BME280_pressure;Samples;Min_cycle;Max_cycle;Signal;HPM_P1;HPM_P2
2023/03/22 00:00:29;;;;;;;13.07;6.10;;;;;;;6.08;83.46;98864.31;5087766;28;20135;-37
2023/03/22 00:02:55;;;;;;;12.73;5.85;;;;;;;6.23;83.90;98887.94;5082425;28;20133;-36
2023/03/22 00:05:21;;;;;;;11.50;5.80;;;;;;;6.24;84.12;98881.03;5077172;28;20041;-37
2023/03/22 00:07:53;;;;;;;11.73;6.43;;;;;;;6.21;84.02;98883.72;5080743;28;20052;-36
2023/03/22 00:10:19;;;;;;;19.23;8.13;;;;;;;6.17;84.73;98893.31;5086924;28;20523;-38
2023/03/22 00:12:45;;;;;;;15.55;7.25;;;;;;;6.07;85.39;98883.31;5082410;28;20059;-36
2023/03/22 00:15:11;;;;;;;13.77;6.00;;;;;;;6.04;86.45;98886.81;5087130;28;20032;-36
2023/03/22 00:17:37;;;;;;;13.65;6.57;;;;;;;6.00;86.73;98880.03;5068612;28;20058;-37
2023/03/22 00:20:05;;;;;;;12.95;5.68;;;;;;;5.91;87.08;98854.53;5067031;28;20063;-37
2023/03/22 00:22:31;;;;;;;16.30;7.03;;;;;;;6.05;87.18;98880.75;5069486;28;20641;-37
2023/03/22 00:24:58;;;;;;;14.68;6.05;;;;;;;6.05;88.19;98888.50;5080499;28;20115;-36
2023/03/22 00:27:24;;;;;;;17.27;7.10;;;;;;;5.91;88.00;98862.25;5086007;28;20044;-37
2023/03/22 00:29:53;;;;;;;14.82;5.93;;;;;;;6.08;88.32;98892.72;5078563;28;20043;-37
2023/03/22 00:32:19;;;;;;;10.93;5.53;;;;;;;6.05;88.71;98888.50;5084890;28;20125;-36
2023/03/22 00:34:45;;;;;;;14.73;6.40;;;;;;;5.90;89.26;98887.22;5071740;28;20130;-36
2023/03/22 00:37:11;;;;;;;15.40;6.30;;;;;;;5.79;89.30;98865.16;5098973;28;20043;-36
2023/03/22 00:39:36;;;;;;;14.45;6.25;;;;;;;5.90;89.21;98870.88;5073113;28;20048;-38
2023/03/22 00:42:05;;;;;;;12.88;5.88;;;;;;;6.11;88.93;98901.22;5087683;28;20059;-37
2023/03/22 00:44:31;;;;;;;13.82;6.38;;;;;;;6.05;88.55;98906.56;5088123;28;20529;-38
2023/03/22 00:46:57;;;;;;;15.32;6.10;;;;;;;5.86;88.76;98880.38;5076913;28;20072;-37
2023/03/22 00:49:24;;;;;;;17.58;7.43;;;;;;;5.80;89.09;98883.16;5052340;28;20036;-37
2023/03/22 00:51:50;;;;;;;11.70;5.60;;;;;;;6.00;89.43;98912.72;5082018;28;20043;-36
2023/03/22 00:54:16;;;;;;;11.70;5.55;;;;;;;5.86;89.42;98900.19;5090543;28;20051;-35
2023/03/22 00:56:45;;;;;;;12.88;5.32;;;;;;;5.92;89.68;98906.03;5073377;28;20420;-37
2023/03/22 00:59:13;;;;;;;14.57;6.00;;;;;;;5.97;89.42;98913.66;5084612;28;20521;-36
2023/03/22 01:01:40;;;;;;;9.15;5.22;;;;;;;6.02;89.40;98913.53;5069908;28;20039;-36
2023/03/22 01:04:06;;;;;;;13.00;6.10;;;;;;;5.83;88.40;98880.47;5071099;28;20040;-37
2023/03/22 01:06:33;;;;;;;12.48;5.25;;;;;;;6.04;88.39;98917.75;5090357;28;20068;-38
2023/03/22 01:08:59;;;;;;;12.77;5.53;;;;;;;6.07;88.62;98922.00;5067585;28;20551;-37
2023/03/22 01:11:26;;;;;;;10.50;4.82;;;;;;;6.06;88.52;98923.72;5053113;28;20078;-37
2023/03/22 01:13:53;;;;;;;9.48;5.03;;;;;;;6.14;88.22;98931.25;5099581;28;20050;-38
2023/03/22 01:16:19;;;;;;;10.43;4.63;;;;;;;6.20;88.13;98928.50;5106198;28;20044;-38
2023/03/22 01:18:46;;;;;;;11.93;5.38;;;;;;;6.23;87.32;98933.53;5072972;28;20470;-37
2023/03/22 01:21:12;;;;;;;10.30;4.55;;;;;;;6.06;87.11;98891.94;5077818;28;20047;-38
2023/03/22 01:23:39;;;;;;;9.15;4.20;;;;;;;6.23;86.79;98929.25;5047711;28;20048;-37
2023/03/22 01:26:05;;;;;;;10.85;5.07;;;;;;;5.97;86.68;98903.34;5090619;28;20032;-36
2023/03/22 01:28:31;;;;;;;10.18;4.90;;;;;;;6.04;86.41;98911.75;5085452;28;20055;-36
2023/03/22 01:31:00;;;;;;;16.40;6.68;;;;;;;6.28;86.23;98947.19;5083923;28;20040;-36
2023/03/22 01:33:26;;;;;;;;;;;;;;;6.27;85.31;98946.34;5089037;28;20075;-37
2023/03/22 01:35:52;;;;;;;8.50;4.30;;;;;;;6.18;85.11;98956.06;5059329;28;19954;-36
2023/03/22 01:38:19;;;;;;;10.40;4.30;;;;;;;6.18;85.50;98959.50;5088248;28;20120;-37
2023/03/22 01:40:59;;;;;;;9.38;4.43;;;;;;;6.18;85.55;98956.06;5067201;28;20155;-36
2023/03/22 01:43:30;;;;;;;8.55;4.65;;;;;;;6.15;85.46;98962.19;5086012;28;20039;-37
2023/03/22 01:45:57;;;;;;;10.23;4.47;;;;;;;6.20;84.90;98962.88;5109843;28;20050;-36
2023/03/22 01:48:34;;;;;;;13.77;5.03;;;;;;;6.18;84.84;98969.81;5088440;28;20100;-36
2023/03/22 01:51:20;;;;;;;14.25;4.90;;;;;;;6.15;85.40;98976.81;5070136;28;20042;-45
2023/03/22 01:54:35;;;;;;;11.80;4.82;;;;;;;6.25;84.91;98965.34;5067172;28;20051;-37
2023/03/22 01:57:09;;;;;;;9.20;4.22;;;;;;;6.33;84.55;98974.53;5088539;28;20047;-36
2023/03/22 01:59:40;;;;;;;11.63;4.65;;;;;;;6.34;83.76;98970.22;5067231;28;20560;-37
2023/03/22 02:02:17;;;;;;;9.35;4.53;;;;;;;6.23;83.23;98947.31;5056330;28;20138;-37
2023/03/22 02:04:56;;;;;;;12.18;5.13;;;;;;;6.48;83.46;98977.59;5064830;28;20036;-39
2023/03/22 02:07:24;;;;;;;12.00;5.28;;;;;;;6.48;83.17;98975.88;5098523;28;20044;-36
2023/03/22 02:09:51;;;;;;;15.32;6.68;;;;;;;6.39;82.47;98976.09;5087152;28;20043;-41
2023/03/22 02:12:41;;;;;;;11.85;5.43;;;;;;;6.28;82.56;98954.94;5072518;28;20503;-37
2023/03/22 02:15:30;;;;;;;9.43;5.55;;;;;;;6.32;82.40;98983.19;5083639;28;20114;-36
2023/03/22 02:18:58;;;;;;;10.50;5.53;;;;;;;6.36;82.35;98986.53;5080335;28;20047;-37
2023/03/22 02:21:39;;;;;;;13.45;6.22;;;;;;;6.39;81.68;98994.19;5028304;28;20135;-37
2023/03/22 02:24:54;;;;;;;17.05;7.72;;;;;;;6.37;82.19;98999.41;5039056;28;20040;-36
2023/03/22 02:27:39;;;;;;;11.55;5.40;;;;;;;6.37;82.01;98999.41;5023561;28;20053;-37
2023/03/22 02:30:27;;;;;;;10.75;5.47;;;;;;;6.44;81.87;99006.97;5044889;28;20045;-36
2023/03/22 02:33:04;;;;;;;11.57;5.13;;;;;;;6.48;80.94;99003.41;5026120;28;20732;-37
2023/03/22 02:36:06;;;;;;;7.93;4.68;;;;;;;6.51;80.49;99008.47;5008598;28;20152;-37
2023/03/22 02:38:58;;;;;;;8.52;4.78;;;;;;;6.53;80.51;99017.88;4960878;28;20582;-36
2023/03/22 02:41:38;;;;;;;9.43;5.10;;;;;;;6.53;79.92;99017.03;4966914;28;20411;-36
2023/03/22 02:44:06;;;;;;;9.50;5.28;;;;;;;6.54;79.63;99022.13;4968403;28;20113;-36
2023/03/22 02:46:35;;;;;;;11.32;5.32;;;;;;;6.54;80.18;99024.72;4952503;28;20053;-37
2023/03/22 02:49:10;;;;;;;9.77;4.63;;;;;;;6.57;79.91;99023.81;4968456;28;20393;-36
2023/03/22 02:51:43;;;;;;;12.90;5.93;;;;;;;6.58;79.13;99033.25;4977209;28;20076;-36
2023/03/22 02:54:14;;;;;;;10.10;4.53;;;;;;;6.55;79.74;99029.00;4990706;28;20112;-37
2023/03/22 02:57:09;;;;;;;8.85;3.92;;;;;;;6.53;78.75;99033.38;5007332;28;20453;-37
2023/03/22 02:59:39;;;;;;;9.90;4.47;;;;;;;6.53;79.38;99032.53;4974614;28;20041;-36
2023/03/22 03:02:08;;;;;;;7.43;3.78;;;;;;;6.50;79.10;99032.59;4970088;28;20045;-37
2023/03/22 03:04:39;;;;;;;9.73;4.35;;;;;;;6.30;79.04;99009.94;5010334;28;20140;-36
2023/03/22 03:07:08;;;;;;;7.32;4.05;;;;;;;6.51;78.89;99031.72;5019876;28;20096;-36
2023/03/22 03:09:34;;;;;;;;;;;;;;;6.52;78.63;99046.31;4981709;28;20099;-36
2023/03/22 03:12:00;;;;;;;10.23;4.22;;;;;;;6.49;78.36;99049.00;4990665;28;20505;-36
2023/03/22 03:14:31;;;;;;;7.38;3.42;;;;;;;6.53;78.22;99046.28;5039240;28;20105;-36
2023/03/22 03:17:20;;;;;;;6.85;3.85;;;;;;;6.55;78.55;99041.91;5084459;28;20161;-36
2023/03/22 03:20:08;;;;;;;6.85;3.63;;;;;;;6.59;78.18;99046.13;5067606;28;20052;-36
2023/03/22 03:22:52;;;;;;;7.20;3.67;;;;;;;6.60;78.04;99054.69;5081259;28;20044;-37
2023/03/22 03:25:31;;;;;;;7.57;4.00;;;;;;;6.64;77.85;99051.16;5078692;28;20040;-36
2023/03/22 03:28:08;;;;;;;6.80;4.22;;;;;;;6.50;77.67;99033.44;5049742;28;20048;-39
2023/03/22 03:30:43;;;;;;;8.15;3.40;;;;;;;6.67;77.21;99062.22;5084002;28;20047;-37
2023/03/22 03:33:15;;;;;;;9.30;4.38;;;;;;;6.70;77.12;99066.44;5086437;28;20040;-37
2023/03/22 03:35:57;;;;;;;6.75;3.22;;;;;;;6.67;77.58;99067.41;5069205;28;20055;-37
2023/03/22 03:38:27;;;;;;;7.72;3.58;;;;;;;6.62;77.29;99079.59;5077394;28;20047;-36
2023/03/22 03:41:00;;;;;;;3.60;2.58;;;;;;;6.63;77.22;99080.44;5066352;28;20084;-35
2023/03/22 03:43:26;;;;;;;5.30;3.05;;;;;;;6.60;77.08;99075.34;5067546;28;20040;-37
2023/03/22 03:45:53;;;;;;;4.90;2.70;;;;;;;6.57;76.68;99083.19;5068335;28;20052;-35
2023/03/22 03:48:22;;;;;;;5.68;2.92;;;;;;;6.54;76.57;99085.88;5050588;28;20048;-37
2023/03/22 03:50:51;;;;;;;7.88;3.72;;;;;;;6.55;76.61;99093.56;5066821;28;20522;-37
2023/03/22 03:53:17;;;;;;;6.78;2.92;;;;;;;6.56;76.21;99099.56;5083868;28;20833;-37
2023/03/22 03:55:43;;;;;;;7.95;5.85;;;;;;;6.52;76.44;99105.72;5066970;28;20484;-36
2023/03/22 03:58:11;;;;;;;8.48;5.43;;;;;;;6.26;76.18;99076.28;5052820;28;20469;-36
2023/03/22 04:00:37;;;;;;;7.32;4.90;;;;;;;6.31;75.60;99115.72;5066925;28;20044;-38
2023/03/22 04:03:22;;;;;;;7.00;5.00;;;;;;;6.23;75.86;99122.81;5067813;28;20048;-38
2023/03/22 04:06:26;;;;;;;6.35;4.22;;;;;;;6.13;75.80;99129.09;5062613;28;20504;-37
2023/03/22 04:08:57;;;;;;;7.38;5.30;;;;;;;6.04;75.38;99123.31;5051043;28;20633;-36
2023/03/22 04:11:29;;;;;;;7.30;5.10;;;;;;;6.01;75.66;99133.72;5083462;28;20044;-36
2023/03/22 04:13:59;;;;;;;6.93;5.20;;;;;;;5.97;75.71;99134.69;5086111;28;20040;-45
2023/03/22 04:16:25;;;;;;;8.00;4.53;;;;;;;5.78;75.48;99101.56;5098547;28;20040;-36
2023/03/22 04:18:52;;;;;;;7.05;5.25;;;;;;;5.91;74.92;99130.53;5085808;28;20139;-36
2023/03/22 04:21:18;;;;;;;10.20;6.57;;;;;;;5.89;74.46;99138.31;5070217;28;20044;-35
2023/03/22 04:24:01;;;;;;;8.68;5.63;;;;;;;5.89;74.84;99134.88;5047415;28;20131;-37
2023/03/22 04:26:32;;;;;;;8.55;5.68;;;;;;;5.86;74.04;99146.06;5061571;28;20047;-37
2023/03/22 04:29:31;;;;;;;10.93;6.50;;;;;;;5.82;74.08;99144.44;5087783;28;20047;-37
2023/03/22 04:32:08;;;;;;;8.25;5.43;;;;;;;5.86;74.05;99156.38;5084258;28;20047;-37
2023/03/22 04:34:39;;;;;;;7.90;5.45;;;;;;;5.86;73.96;99166.72;5087500;28;20040;-36
2023/03/22 04:37:10;;;;;;;5.85;4.00;;;;;;;5.83;73.60;99155.63;5062805;28;20126;-35
2023/03/22 04:39:44;;;;;;;11.60;5.30;;;;;;;5.80;73.68;99161.72;5071132;28;20055;-42
2023/03/22 04:42:31;;;;;;;8.10;5.00;;;;;;;5.78;73.63;99167.78;5082347;28;20052;-40
2023/03/22 04:45:10;;;;;;;6.07;4.70;;;;;;;5.62;73.38;99138.06;5083537;28;20087;-43
2023/03/22 04:47:37;;;;;;;7.13;4.90;;;;;;;5.77;73.18;99173.81;5084247;28;20342;-36
2023/03/22 04:50:06;;;;;;;7.40;4.78;;;;;;;5.68;73.18;99151.69;5071762;28;20047;-35
2023/03/22 04:52:39;;;;;;;7.25;4.35;;;;;;;5.85;72.76;99179.66;5069592;28;20051;-35
2023/03/22 04:55:06;;;;;;;7.15;4.60;;;;;;;5.92;72.69;99178.66;5072746;28;20032;-36
2023/03/22 04:57:34;;;;;;;7.55;3.92;;;;;;;5.98;72.98;99178.50;5090124;28;20048;-36
2023/03/22 05:00:00;;;;;;;4.82;3.45;;;;;;;6.07;72.65;99185.19;5062068;28;20042;-36
2023/03/22 05:02:27;;;;;;;5.70;3.40;;;;;;;6.10;72.65;99179.94;5086663;28;20044;-36
2023/03/22 05:04:54;;;;;;;8.18;4.03;;;;;;;5.85;71.94;99133.22;5100546;28;20044;-36
2023/03/22 05:07:30;;;;;;;7.45;4.00;;;;;;;6.13;72.02;99180.72;5057666;28;20062;-36
2023/03/22 05:09:59;;;;;;;5.68;3.85;;;;;;;6.14;71.86;99190.16;5103886;28;20059;-36
2023/03/22 05:12:25;;;;;;;4.38;3.50;;;;;;;6.09;71.46;99192.00;5083018;28;20433;-36
2023/03/22 05:15:31;;;;;;;6.85;3.92;;;;;;;6.10;71.42;99204.03;5089518;28;20083;-37
2023/03/22 05:17:58;;;;;;;7.50;4.22;;;;;;;6.10;71.61;99204.03;5052995;28;20051;-35
2023/03/22 05:20:25;;;;;;;5.88;4.05;;;;;;;6.11;70.99;99202.28;5069454;28;20045;-37
2023/03/22 05:23:17;;;;;;;6.25;3.75;;;;;;;6.18;71.09;99206.41;5068108;28;20048;-36
2023/03/22 05:25:46;;;;;;;6.53;4.10;;;;;;;6.22;70.58;99214.06;5068831;28;20166;-35
2023/03/22 05:28:18;;;;;;;5.65;3.40;;;;;;;6.25;70.58;99218.28;5053057;28;20051;-37
2023/03/22 05:31:04;;;;;;;6.70;4.00;;;;;;;6.27;70.61;99227.69;5043153;28;20381;-36
2023/03/22 05:33:45;;;;;;;3.78;2.75;;;;;;;6.20;70.27;99223.56;5086195;28;20036;-36
2023/03/22 05:36:13;;;;;;;3.78;2.78;;;;;;;6.16;70.23;99239.16;5078122;28;20044;-37
2023/03/22 05:38:58;;;;;;;4.35;2.72;;;;;;;6.13;70.23;99244.38;5074407;28;20048;-37
2023/03/22 05:41:24;;;;;;;3.55;2.17;;;;;;;6.12;70.28;99246.13;5073475;28;20044;-38
2023/03/22 05:43:50;;;;;;;3.63;1.92;;;;;;;6.10;69.59;99242.72;5069410;28;20062;-36
2023/03/22 05:46:17;;;;;;;7.45;2.65;;;;;;;5.92;69.23;99205.28;5052770;28;20051;-36
2023/03/22 05:49:05;;;;;;;3.35;2.00;;;;;;;5.97;68.75;99207.75;5071078;28;20051;-38
2023/03/22 05:51:40;;;;;;;7.50;2.72;;;;;;;6.28;67.91;99262.09;5089323;27;20411;-38
2023/03/22 05:54:09;;;;;;;3.88;2.13;;;;;;;6.31;67.53;99262.88;5083743;28;20048;-38
2023/03/22 05:56:40;;;;;;;5.55;2.70;;;;;;;6.32;67.67;99268.88;5089297;28;20123;-37
2023/03/22 05:59:06;;;;;;;6.75;3.65;;;;;;;6.13;67.88;99244.38;5093927;27;20063;-38
2023/03/22 06:01:33;;;;;;;5.47;3.47;;;;;;;6.22;67.17;99273.44;5069298;28;20043;-36
2023/03/22 06:04:17;;;;;;;7.15;4.15;;;;;;;6.21;66.85;99270.88;5077169;28;20109;-36
2023/03/22 06:07:13;;;;;;;4.75;2.83;;;;;;;6.30;67.30;99268.06;5058151;28;20036;-37
2023/03/22 06:09:40;;;;;;;4.78;2.20;;;;;;;6.20;66.99;99246.78;5090876;28;20497;-40
2023/03/22 06:12:10;;;;;;;4.10;2.10;;;;;;;6.53;66.40;99270.09;5049535;28;20070;-38
2023/03/22 06:14:37;;;;;;;3.75;2.40;;;;;;;6.67;65.25;99240.44;5078866;28;20040;-37
2023/03/22 06:17:27;;;;;;;2.05;1.58;;;;;;;6.88;64.65;99251.13;5091507;28;20048;-37
2023/03/22 06:19:55;;;;;;;6.85;3.03;;;;;;;6.96;64.17;99272.44;5089461;28;20036;-38
2023/03/22 06:22:23;;;;;;;3.38;2.05;;;;;;;6.95;63.72;99271.59;5081303;28;20044;-38
2023/03/22 06:24:49;;;;;;;5.05;1.90;;;;;;;7.00;63.88;99277.50;5067447;28;20044;-37
2023/03/22 06:27:22;;;;;;;2.72;1.83;;;;;;;7.00;63.20;99276.66;5062589;28;20139;-36
2023/03/22 06:29:49;;;;;;;2.80;1.85;;;;;;;7.07;63.49;99275.56;5088470;28;20575;-38
2023/03/22 06:32:18;;;;;;;3.45;1.85;;;;;;;6.92;62.82;99252.72;5087431;28;20044;-37
2023/03/22 06:34:45;;;;;;;2.05;1.60;;;;;;;7.15;62.48;99271.06;5084200;28;20173;-37
2023/03/22 06:37:12;;;;;;;3.55;2.28;;;;;;;7.29;62.54;99283.59;5087826;28;20572;-38
2023/03/22 06:39:41;;;;;;;3.08;1.73;;;;;;;7.52;61.93;99271.75;5085426;28;20059;-36
2023/03/22 06:42:09;;;;;;;5.00;3.00;;;;;;;7.86;61.21;99278.50;5074236;28;20438;-37
2023/03/22 06:44:35;;;;;;;2.92;2.00;;;;;;;7.89;60.54;99235.28;5071637;28;20037;-36
2023/03/22 06:47:25;;;;;;;2.42;1.88;;;;;;;8.28;59.89;99277.19;5062840;28;20523;-37
2023/03/22 06:50:01;;;;;;;5.35;2.13;;;;;;;8.22;59.35;99277.38;5083979;28;20040;-37
2023/03/22 06:52:47;;;;;;;4.20;1.73;;;;;;;8.37;59.14;99286.47;5084142;28;20050;-35
2023/03/22 06:55:13;;;;;;;3.95;1.35;;;;;;;8.27;58.51;99283.25;5048126;28;20040;-36
2023/03/22 06:57:39;;;;;;;2.40;1.58;;;;;;;8.12;58.37;99251.81;5084671;28;20044;-35
2023/03/22 07:00:08;;;;;;;6.90;2.78;;;;;;;8.53;57.96;99286.81;5068146;28;20040;-37
2023/03/22 07:02:35;;;;;;;3.05;1.80;;;;;;;8.88;57.09;99278.72;5071282;28;20133;-35
2023/03/22 07:05:27;;;;;;;1.70;1.40;;;;;;;10.71;54.82;99283.91;5066634;28;20466;-36
2023/03/22 07:07:52;;;;;;;1.92;1.45;;;;;;;11.25;52.38;99288.50;5069437;28;20071;-36
2023/03/22 07:10:19;;;;;;;3.15;1.70;;;;;;;11.42;51.57;99283.44;5087031;28;20044;-36
2023/03/22 07:12:45;;;;;;;2.40;1.67;;;;;;;13.47;49.01;99281.31;5069401;28;20046;-38
2023/03/22 07:15:16;;;;;;;2.17;1.90;;;;;;;15.76;45.16;99279.53;5076435;28;20040;-36
2023/03/22 07:17:53;;;;;;;5.47;3.50;;;;;;;16.94;42.23;99277.16;5087168;28;20044;-36
2023/03/22 07:20:19;;;;;;;2.55;2.05;;;;;;;18.32;39.79;99266.63;5087096;28;20040;-36
2023/03/22 07:22:49;;;;;;;1.65;1.45;;;;;;;18.17;39.15;99285.19;5086495;28;20123;-37
2023/03/22 07:25:16;;;;;;;4.82;2.53;;;;;;;18.02;38.70;99294.16;5054246;28;20507;-38
2023/03/22 07:27:43;;;;;;;3.55;1.83;;;;;;;19.55;36.21;99297.72;5066947;28;20726;-37
2023/03/22 07:30:10;;;;;;;5.15;1.98;;;;;;;19.17;35.72;99302.41;5091905;28;20040;-35
2023/03/22 07:32:41;;;;;;;5.18;2.10;;;;;;;20.08;33.98;99304.09;5068119;28;20524;-37
2023/03/22 07:35:11;;;;;;;4.45;2.67;;;;;;;19.66;33.44;99310.94;5083301;28;20048;-36
2023/03/22 07:37:39;;;;;;;2.97;1.98;;;;;;;18.17;34.52;99302.75;5087390;28;20090;-37
2023/03/22 07:40:14;;;;;;;7.15;2.65;;;;;;;17.50;35.15;99303.97;5088411;28;20046;-37
2023/03/22 07:42:40;;;;;;;3.22;2.10;;;;;;;17.53;34.91;99298.53;5088016;27;20052;-36
2023/03/22 07:45:36;;;;;;;4.65;3.00;;;;;;;18.93;33.60;99297.19;5060013;28;20131;-36
2023/03/22 07:48:35;;;;;;;1.63;1.30;;;;;;;19.01;32.78;99300.94;5065733;28;20052;-42
2023/03/22 07:51:24;;;;;;;4.40;1.60;;;;;;;18.84;32.75;99298.72;5070845;28;20515;-37
2023/03/22 07:53:50;;;;;;;2.72;1.58;;;;;;;19.33;32.26;99303.78;5082185;28;20602;-37
2023/03/22 07:56:17;;;;;;;3.72;1.15;;;;;;;20.12;31.02;99300.22;5082681;28;20052;-40
2023/03/22 07:58:43;;;;;;;1.77;1.50;;;;;;;19.25;31.34;99306.16;5087872;28;20039;-39
2023/03/22 08:01:09;;;;;;;3.58;1.20;;;;;;;18.12;32.46;99297.81;5084884;28;20460;-37
2023/03/22 08:03:47;;;;;;;;;;;;;;;17.38;33.39;99307.47;5072656;28;20495;-37
2023/03/22 08:06:31;;;;;;;1.77;1.27;;;;;;;17.92;32.89;99303.66;5086389;28;19916;-37
2023/03/22 08:08:58;;;;;;;1.98;1.20;;;;;;;18.31;32.56;99299.16;5068711;28;20048;-36
2023/03/22 08:11:24;;;;;;;1.48;1.30;;;;;;;18.19;31.90;99296.44;5073913;28;20571;-39
2023/03/22 08:13:50;;;;;;;2.20;1.10;;;;;;;17.82;32.36;99305.25;5050207;28;20045;-37
2023/03/22 08:16:16;;;;;;;3.60;1.20;;;;;;;17.96;32.26;99305.13;5083528;28;20123;-37
2023/03/22 08:18:42;;;;;;;3.00;1.70;;;;;;;17.30;32.95;99258.06;5067884;28;20043;-36
2023/03/22 08:21:08;;;;;;;4.30;1.40;;;;;;;19.22;31.29;99302.91;5083139;28;20420;-36
2023/03/22 08:23:35;;;;;;;1.77;1.25;;;;;;;21.51;28.93;99302.84;5052996;28;20064;-37
2023/03/22 08:26:19;;;;;;;1.40;1.30;;;;;;;21.76;27.88;99291.84;5080667;28;20131;-37
2023/03/22 08:28:45;;;;;;;2.42;1.48;;;;;;;21.42;28.34;99308.91;5066251;28;20045;-37
2023/03/22 08:31:17;;;;;;;1.50;1.30;;;;;;;20.86;28.66;99306.53;5066140;28;20040;-40
2023/03/22 08:33:45;;;;;;;2.78;1.80;;;;;;;20.76;28.81;99307.44;5082956;28;20125;-37
2023/03/22 08:36:15;;;;;;;2.38;1.10;;;;;;;20.07;28.93;99309.47;5063604;28;20419;-36
2023/03/22 08:38:46;;;;;;;3.10;1.02;;;;;;;18.99;30.26;99308.13;5070635;28;20077;-40
2023/03/22 08:41:15;;;;;;;;;;;;;;;18.04;31.18;99307.22;5069868;28;20086;-37
2023/03/22 08:43:42;;;;;;;2.67;1.38;;;;;;;18.04;31.69;99315.97;5079576;28;19974;-37
2023/03/22 08:46:08;;;;;;;3.42;1.50;;;;;;;18.51;30.71;99288.00;5083505;28;20033;-37
2023/03/22 08:48:36;;;;;;;2.65;1.40;;;;;;;18.17;31.50;99315.91;5083213;28;20048;-37
2023/03/22 08:51:11;;;;;;;3.20;1.20;;;;;;;19.09;30.40;99308.28;5066460;28;20063;-37
2023/03/22 08:53:49;;;;;;;1.75;0.90;;;;;;;18.80;30.46;99312.22;5083139;28;20052;-37
2023/03/22 08:56:38;;;;;;;;;;;;;;;19.40;29.83;99315.53;5067650;28;20044;-36
2023/03/22 08:59:16;;;;;;;2.75;1.20;;;;;;;21.39;28.24;99311.81;5062041;28;20029;-38
2023/03/22 09:02:00;;;;;;;2.70;1.15;;;;;;;23.11;26.67;99310.66;5082983;28;20055;-36
2023/03/22 09:04:26;;;;;;;4.13;1.20;;;;;;;22.64;26.41;99313.13;5066316;28;20111;-38
2023/03/22 09:06:52;;;;;;;4.68;2.00;;;;;;;23.70;25.75;99312.25;5065921;28;20040;-37
2023/03/22 09:09:19;;;;;;;1.48;1.38;;;;;;;24.29;25.04;99298.56;5083661;28;20052;-38
2023/03/22 09:11:48;;;;;;;2.97;1.60;;;;;;;23.19;24.97;99276.28;5070406;28;20051;-38
2023/03/22 09:14:14;;;;;;;1.50;1.30;;;;;;;22.82;25.04;99296.59;5071124;28;20076;-37
2023/03/22 09:16:41;;;;;;;4.63;2.95;;;;;;;23.34;24.83;99304.06;5086811;28;20036;-37
2023/03/22 09:19:07;;;;;;;2.92;1.38;;;;;;;24.39;23.92;99310.81;5086503;28;20399;-37
2023/03/22 09:21:33;;;;;;;2.88;1.40;;;;;;;25.74;22.94;99307.03;5067227;28;20052;-37
2023/03/22 09:24:16;;;;;;;5.35;1.20;;;;;;;26.30;21.77;99325.13;5091898;28;20040;-37
2023/03/22 09:26:45;;;;;;;2.97;1.35;;;;;;;23.90;22.79;99297.91;5053316;28;20147;-37
2023/03/22 09:29:14;;;;;;;2.80;2.03;;;;;;;23.11;24.22;99319.47;5069227;28;20044;-37
2023/03/22 09:31:40;;;;;;;4.63;2.22;;;;;;;22.61;24.23;99302.78;5036112;28;20052;-38
2023/03/22 09:34:35;;;;;;;1.50;1.40;;;;;;;21.71;24.89;99286.09;5075902;28;20127;-38
2023/03/22 09:37:03;;;;;;;2.47;1.88;;;;;;;21.19;25.91;99321.44;5069201;28;20040;-37
2023/03/22 09:39:40;;;;;;;2.35;1.77;;;;;;;22.72;24.58;99331.00;5086331;28;20779;-37
2023/03/22 09:42:20;;;;;;;2.35;1.30;;;;;;;23.80;23.67;99334.28;5068830;28;20064;-38
2023/03/22 09:44:48;;;;;;;2.15;1.83;;;;;;;22.66;24.64;99323.63;5069497;28;20044;-37
2023/03/22 09:47:30;;;;;;;1.60;1.50;;;;;;;22.99;24.27;99327.69;5060532;28;20540;-38
2023/03/22 09:50:07;;;;;;;3.65;1.65;;;;;;;23.34;23.91;99327.13;5076299;28;20071;-38
2023/03/22 09:52:33;;;;;;;3.20;1.90;;;;;;;23.66;23.49;99326.81;5058371;28;20039;-38
2023/03/22 09:54:59;;;;;;;1.80;1.35;;;;;;;24.74;22.59;99331.31;5072087;28;20415;-37
2023/03/22 09:57:37;;;;;;;4.43;3.50;;;;;;;24.86;22.52;99326.59;5090205;28;20040;-38
2023/03/22 10:00:11;;;;;;;3.53;2.20;;;;;;;24.15;22.70;99330.91;5089152;28;20061;-38
2023/03/22 10:03:00;;;;;;;5.03;1.42;;;;;;;22.20;24.61;99313.59;5075522;28;20041;-38
2023/03/22 10:05:32;;;;;;;3.72;1.75;;;;;;;23.75;23.74;99323.28;5042791;28;20036;-37
2023/03/22 10:08:20;;;;;;;3.22;2.53;;;;;;;26.28;21.45;99316.44;5090304;28;20055;-39
2023/03/22 10:10:46;;;;;;;4.73;2.33;;;;;;;27.73;20.62;99323.78;5088914;28;20039;-38
2023/03/22 10:13:30;;;;;;;5.65;1.80;;;;;;;28.64;19.46;99317.88;5089013;28;20335;-38
2023/03/22 10:16:00;;;;;;;4.75;2.28;;;;;;;28.53;19.53;99320.94;5083268;28;20063;-38
2023/03/22 10:18:36;;;;;;;1.83;1.55;;;;;;;26.19;20.55;99322.72;5069762;28;20126;-37
2023/03/22 10:21:05;;;;;;;3.90;1.27;;;;;;;25.29;21.07;99318.66;5067290;28;20048;-38
2023/03/22 10:23:38;;;;;;;2.78;1.88;;;;;;;22.38;23.51;99291.63;5084716;28;20044;-40
2023/03/22 10:26:06;;;;;;;3.35;2.40;;;;;;;21.52;24.67;99315.09;5069243;28;20029;-38
2023/03/22 10:28:40;;;;;;;3.88;1.83;;;;;;;23.66;23.15;99298.41;5051272;28;20420;-37
2023/03/22 10:31:13;;;;;;;3.30;1.42;;;;;;;24.13;22.19;99307.16;5067901;28;20036;-38
2023/03/22 10:33:49;;;;;;;2.17;1.48;;;;;;;24.14;21.94;99314.16;5067357;28;20063;-37
2023/03/22 10:36:17;;;;;;;3.95;1.63;;;;;;;23.15;22.89;99312.03;5069473;28;20037;-38
2023/03/22 10:38:56;;;;;;;2.88;2.20;;;;;;;25.27;21.28;99303.88;5069288;28;20048;-38
2023/03/22 10:41:24;;;;;;;4.07;2.25;;;;;;;26.67;20.25;99323.88;5067776;28;20083;-38
2023/03/22 10:43:56;;;;;;;2.05;1.73;;;;;;;26.84;19.74;99330.91;5067966;28;20044;-38
2023/03/22 10:46:25;;;;;;;3.38;1.30;;;;;;;24.21;21.43;99307.31;5069389;28;20041;-37
2023/03/22 10:48:52;;;;;;;;;;;;;;;22.06;23.35;99309.53;5083865;28;20452;-38
2023/03/22 10:51:39;;;;;;;3.58;1.60;;;;;;;19.05;26.91;99309.47;5088248;28;19908;-37
2023/03/22 10:54:11;;;;;;;2.67;1.60;;;;;;;18.72;27.68;99307.53;5088039;28;20504;-37
2023/03/22 10:56:37;;;;;;;5.40;1.95;;;;;;;17.97;28.44;99304.19;5071118;28;20042;-37
2023/03/22 10:59:04;;;;;;;4.95;2.70;;;;;;;17.22;29.65;99297.13;5089447;28;20031;-36
2023/03/22 11:01:32;;;;;;;3.72;1.35;;;;;;;17.00;30.29;99300.38;5081038;28;20576;-37
2023/03/22 11:04:04;;;;;;;5.63;1.90;;;;;;;16.62;30.70;99313.41;5082415;28;20043;-37
2023/03/22 11:06:34;;;;;;;3.60;1.45;;;;;;;16.08;31.46;99307.22;5079071;28;20526;-37
2023/03/22 11:09:22;;;;;;;2.63;1.23;;;;;;;16.04;31.93;99311.84;5085053;28;20063;-35
2023/03/22 11:11:54;;;;;;;2.75;1.60;;;;;;;15.11;33.03;99308.78;5076192;28;20511;-39
2023/03/22 11:14:30;;;;;;;3.17;1.85;;;;;;;14.64;33.94;99318.53;5066895;28;20090;-40
2023/03/22 11:16:59;;;;;;;4.10;2.33;;;;;;;13.85;35.41;99322.88;5082899;28;20140;-37
2023/03/22 11:19:27;;;;;;;3.33;1.90;;;;;;;13.31;36.35;99309.16;5068689;28;20083;-37
2023/03/22 11:21:56;;;;;;;3.55;2.60;;;;;;;12.85;38.07;99307.16;5072961;28;20132;-37
2023/03/22 11:24:25;;;;;;;4.15;2.20;;;;;;;12.71;38.13;99302.63;5083437;28;20040;-39
2023/03/22 11:27:18;;;;;;;3.90;1.90;;;;;;;12.76;38.62;99318.03;5055085;28;20046;-37
2023/03/22 11:29:53;;;;;;;5.63;2.13;;;;;;;12.44;39.39;99312.63;5085576;28;20031;-39
2023/03/22 11:32:39;;;;;;;3.10;1.52;;;;;;;12.10;39.73;99317.72;5065867;28;20043;-37
2023/03/22 11:35:24;;;;;;;4.63;2.67;;;;;;;12.06;40.25;99308.34;5068628;28;20087;-38
2023/03/22 11:37:54;;;;;;;2.03;1.60;;;;;;;11.83;40.99;99318.06;5085458;28;20036;-38
2023/03/22 11:40:26;;;;;;;2.15;1.60;;;;;;;11.40;42.32;99289.63;5101056;28;20055;-37
2023/03/22 11:42:54;;;;;;;4.80;2.35;;;;;;;11.83;41.62;99317.22;5084032;28;20040;-38
2023/03/22 11:45:34;;;;;;;5.18;1.67;;;;;;;11.97;41.34;99317.44;5075126;28;20033;-36
2023/03/22 11:48:04;;;;;;;3.22;1.83;;;;;;;11.47;42.87;99317.91;5083950;28;20071;-38
2023/03/22 11:50:36;;;;;;;7.72;2.63;;;;;;;11.30;42.95;99286.59;5084324;28;20123;-37
2023/03/22 11:53:03;;;;;;;2.53;1.70;;;;;;;11.46;43.56;99304.97;5063040;28;20049;-39
2023/03/22 11:55:30;;;;;;;3.90;2.33;;;;;;;11.74;42.92;99282.03;5083650;28;20093;-38
2023/03/22 11:57:57;;;;;;;2.10;1.60;;;;;;;12.31;42.06;99312.34;5084321;28;20069;-38
2023/03/22 12:00:26;;;;;;;4.45;2.28;;;;;;;12.43;41.92;99261.38;5072388;28;20534;-39
2023/03/22 12:03:13;;;;;;;2.70;1.55;;;;;;;12.71;42.09;99298.25;5047208;28;20431;-38
2023/03/22 12:05:43;;;;;;;2.55;1.40;;;;;;;13.27;40.93;99297.19;5072812;28;20054;-36